Ship Status Report: callsign OXNC2

sailwx.info

Track history (hours):
 
Tides and Currents Weather Stations Pressure Air Temp Water Temp Dewpoint Dewpoint Depression Visibility Wind Speed Wind Dir Waves Ship Positions

Callsign OXNC2 (name unknown)

Last reported at 2018-May-06 07:29 UTC. Time now 2018-Jun-25 17:32 UTC.
Position N 40°30' W 073°56'.
Warning: this ship's position is 50 days out of date.

Date/timePositionNaut miles runAvg speedWind from/ knotsBaromVisibWave heightAir tempDewpointWater temp
2018-May-06 07:29N 40°30' W 073°56'2 4.5
2018-May-06 07:00N 40°28' W 073°57'612.7
2018-May-06 06:30N 40°29' W 074°06'511.4
2018-May-06 06:01N 40°30' W 074°13'3 3.8
2018-May-06 05:06N 40°33' W 074°14'1 5.1
2018-May-06 04:55N 40°34' W 074°13'1 1.5
2018-May-06 04:28N 40°35' W 074°13'0 0.5
2018-May-06 03:55N 40°35' W 074°13'0 0.0
2018-May-04 04:55N 40°35' W 074°13'12 3.4
2018-May-04 01:23N 40°29' W 073°59'15 0.4
2018-May-02 13:02N 40°30' W 073°39'0 0.0
2018-May-02 12:59N 40°30' W 073°39'0 0.0
2018-May-02 12:17N 40°30' W 073°39'0 0.0
2018-May-02 11:53N 40°30' W 073°39'0 0.0
2018-May-02 11:25N 40°30' W 073°39'0 0.0
2018-May-02 10:57N 40°30' W 073°39'0 0.0
2018-May-01 12:12N 40°30' W 073°39'0 0.0
2018-May-01 12:01N 40°30' W 073°39'0 0.0
2018-May-01 11:30N 40°30' W 073°39'0 0.0
2018-May-01 10:59N 40°30' W 073°39'0 0.0
2018-May-01 10:30N 40°30' W 073°39'0 0.0
2018-May-01 10:00N 40°30' W 073°39'0 0.0
2018-May-01 09:30N 40°30' W 073°39'0 0.0
2018-May-01 09:00N 40°30' W 073°39'0 0.0
2018-May-01 08:30N 40°30' W 073°39'0 0.0
2018-May-01 08:01N 40°30' W 073°39'  
Track history (hours):
 
Tides and Currents Weather Stations Pressure Air Temp Water Temp Dewpoint Dewpoint Depression Visibility Wind Speed Wind Dir Waves Ship Positions

Callsign OXNC2 (name unknown)

Last reported at 2018-May-06 07:29 UTC. Time now 2018-Jun-25 17:32 UTC.
Position N 40°30' W 073°56'.
Warning: this ship's position is 50 days out of date.

Date/timePositionNaut miles runAvg speedWind from/ knotsBaromVisibWave heightAir tempDewpointWater temp
2018-May-06 07:29N 40°30' W 073°56'2 4.5
2018-May-06 07:00N 40°28' W 073°57'612.7
2018-May-06 06:30N 40°29' W 074°06'511.4
2018-May-06 06:01N 40°30' W 074°13'3 3.8
2018-May-06 05:06N 40°33' W 074°14'1 5.1
2018-May-06 04:55N 40°34' W 074°13'1 1.5
2018-May-06 04:28N 40°35' W 074°13'0 0.5
2018-May-06 03:55N 40°35' W 074°13'0 0.0
2018-May-04 04:55N 40°35' W 074°13'12 3.4
2018-May-04 01:23N 40°29' W 073°59'15 0.4
2018-May-02 13:02N 40°30' W 073°39'0 0.0
2018-May-02 12:59N 40°30' W 073°39'0 0.0
2018-May-02 12:17N 40°30' W 073°39'0 0.0
2018-May-02 11:53N 40°30' W 073°39'0 0.0
2018-May-02 11:25N 40°30' W 073°39'0 0.0
2018-May-02 10:57N 40°30' W 073°39'0 0.0
2018-May-01 12:12N 40°30' W 073°39'0 0.0
2018-May-01 12:01N 40°30' W 073°39'0 0.0
2018-May-01 11:30N 40°30' W 073°39'0 0.0
2018-May-01 10:59N 40°30' W 073°39'0 0.0
2018-May-01 10:30N 40°30' W 073°39'0 0.0
2018-May-01 10:00N 40°30' W 073°39'0 0.0
2018-May-01 09:30N 40°30' W 073°39'0 0.0
2018-May-01 09:00N 40°30' W 073°39'0 0.0
2018-May-01 08:30N 40°30' W 073°39'0 0.0
2018-May-01 08:01N 40°30' W 073°39'  

Dump ship's entire track history